sensor_id;sensor_type;location;lat;lon;timestamp;temperature;humidity
79439;DHT22;68889;48.232;10.110;2023-04-03T00:00:28;2.00;94.30
79439;DHT22;68889;48.232;10.110;2023-04-03T00:02:54;2.00;94.60
79439;DHT22;68889;48.232;10.110;2023-04-03T00:05:19;2.00;93.90
79439;DHT22;68889;48.232;10.110;2023-04-03T00:07:45;2.00;94.00
79439;DHT22;68889;48.232;10.110;2023-04-03T00:10:11;2.00;93.80
79439;DHT22;68889;48.232;10.110;2023-04-03T00:12:37;2.10;93.00
79439;DHT22;68889;48.232;10.110;2023-04-03T00:15:03;2.10;92.00
79439;DHT22;68889;48.232;10.110;2023-04-03T00:17:29;2.10;91.70
79439;DHT22;68889;48.232;10.110;2023-04-03T00:19:54;2.00;92.20
79439;DHT22;68889;48.232;10.110;2023-04-03T00:22:20;2.00;90.20
79439;DHT22;68889;48.232;10.110;2023-04-03T00:24:45;2.10;90.20
79439;DHT22;68889;48.232;10.110;2023-04-03T00:27:11;2.10;90.40
79439;DHT22;68889;48.232;10.110;2023-04-03T00:29:36;2.10;89.50
79439;DHT22;68889;48.232;10.110;2023-04-03T00:32:02;2.10;88.10
79439;DHT22;68889;48.232;10.110;2023-04-03T00:34:28;2.10;88.60
79439;DHT22;68889;48.232;10.110;2023-04-03T00:36:53;2.10;88.60
79439;DHT22;68889;48.232;10.110;2023-04-03T00:39:19;2.10;88.40
79439;DHT22;68889;48.232;10.110;2023-04-03T00:41:45;2.00;87.60
79439;DHT22;68889;48.232;10.110;2023-04-03T00:46:59;2.10;88.30
79439;DHT22;68889;48.232;10.110;2023-04-03T00:49:26;2.20;87.20
79439;DHT22;68889;48.232;10.110;2023-04-03T00:51:52;2.10;86.80
79439;DHT22;68889;48.232;10.110;2023-04-03T00:54:17;2.10;85.20
79439;DHT22;68889;48.232;10.110;2023-04-03T00:56:44;2.20;85.70
79439;DHT22;68889;48.232;10.110;2023-04-03T00:59:13;2.10;83.80
79439;DHT22;68889;48.232;10.110;2023-04-03T01:01:40;2.10;85.30
79439;DHT22;68889;48.232;10.110;2023-04-03T01:06:57;1.90;83.70
79439;DHT22;68889;48.232;10.110;2023-04-03T01:09:23;2.00;83.00
79439;DHT22;68889;48.232;10.110;2023-04-03T01:11:48;1.90;81.80
79439;DHT22;68889;48.232;10.110;2023-04-03T01:14:14;1.90;81.00
79439;DHT22;68889;48.232;10.110;2023-04-03T01:16:40;1.90;83.10
79439;DHT22;68889;48.232;10.110;2023-04-03T01:19:14;1.90;81.70
79439;DHT22;68889;48.232;10.110;2023-04-03T01:22:10;1.90;81.90
79439;DHT22;68889;48.232;10.110;2023-04-03T01:24:38;1.80;80.60
79439;DHT22;68889;48.232;10.110;2023-04-03T01:27:06;1.90;83.20
79439;DHT22;68889;48.232;10.110;2023-04-03T01:29:33;1.90;84.30
79439;DHT22;68889;48.232;10.110;2023-04-03T01:32:00;2.00;85.30
79439;DHT22;68889;48.232;10.110;2023-04-03T01:34:27;2.10;84.30
79439;DHT22;68889;48.232;10.110;2023-04-03T01:36:53;2.10;82.80
79439;DHT22;68889;48.232;10.110;2023-04-03T01:39:19;2.10;82.90
79439;DHT22;68889;48.232;10.110;2023-04-03T01:41:45;2.10;81.20
79439;DHT22;68889;48.232;10.110;2023-04-03T01:44:11;2.10;81.00
79439;DHT22;68889;48.232;10.110;2023-04-03T01:46:36;2.10;83.40
79439;DHT22;68889;48.232;10.110;2023-04-03T01:49:03;2.10;84.20
79439;DHT22;68889;48.232;10.110;2023-04-03T01:51:29;2.10;83.30
79439;DHT22;68889;48.232;10.110;2023-04-03T01:53:54;2.20;84.90
79439;DHT22;68889;48.232;10.110;2023-04-03T01:56:20;2.20;85.30
79439;DHT22;68889;48.232;10.110;2023-04-03T01:58:46;2.20;85.30
79439;DHT22;68889;48.232;10.110;2023-04-03T02:01:11;2.30;83.60
79439;DHT22;68889;48.232;10.110;2023-04-03T02:03:37;2.30;84.70
79439;DHT22;68889;48.232;10.110;2023-04-03T02:06:03;2.30;85.20
79439;DHT22;68889;48.232;10.110;2023-04-03T02:08:28;2.30;86.10
79439;DHT22;68889;48.232;10.110;2023-04-03T02:10:54;2.30;84.80
79439;DHT22;68889;48.232;10.110;2023-04-03T02:13:19;2.30;83.80
79439;DHT22;68889;48.232;10.110;2023-04-03T02:15:45;2.30;82.90
79439;DHT22;68889;48.232;10.110;2023-04-03T02:18:11;2.30;81.50
79439;DHT22;68889;48.232;10.110;2023-04-03T02:20:37;2.30;82.30
79439;DHT22;68889;48.232;10.110;2023-04-03T02:23:03;2.20;81.90
79439;DHT22;68889;48.232;10.110;2023-04-03T02:25:30;2.20;81.20
79439;DHT22;68889;48.232;10.110;2023-04-03T02:27:56;2.20;81.10
79439;DHT22;68889;48.232;10.110;2023-04-03T02:30:21;2.20;82.00
79439;DHT22;68889;48.232;10.110;2023-04-03T02:32:47;2.10;81.50
79439;DHT22;68889;48.232;10.110;2023-04-03T02:35:12;2.10;82.30
79439;DHT22;68889;48.232;10.110;2023-04-03T02:37:38;2.10;82.50
79439;DHT22;68889;48.232;10.110;2023-04-03T02:40:06;2.10;83.20
79439;DHT22;68889;48.232;10.110;2023-04-03T02:42:32;2.10;82.70
79439;DHT22;68889;48.232;10.110;2023-04-03T02:44:57;2.20;84.20
79439;DHT22;68889;48.232;10.110;2023-04-03T02:47:26;2.10;82.10
79439;DHT22;68889;48.232;10.110;2023-04-03T02:49:51;2.10;80.30
79439;DHT22;68889;48.232;10.110;2023-04-03T02:52:18;2.10;79.90
79439;DHT22;68889;48.232;10.110;2023-04-03T02:54:43;2.00;81.00
79439;DHT22;68889;48.232;10.110;2023-04-03T02:57:09;2.10;81.30
79439;DHT22;68889;48.232;10.110;2023-04-03T02:59:36;2.00;79.60
79439;DHT22;68889;48.232;10.110;2023-04-03T03:02:01;2.10;80.20
79439;DHT22;68889;48.232;10.110;2023-04-03T03:04:27;2.00;80.20
79439;DHT22;68889;48.232;10.110;2023-04-03T03:06:53;2.00;79.50
79439;DHT22;68889;48.232;10.110;2023-04-03T03:09:18;2.10;82.90
79439;DHT22;68889;48.232;10.110;2023-04-03T03:11:44;2.00;79.80
79439;DHT22;68889;48.232;10.110;2023-04-03T03:14:10;1.90;79.70
79439;DHT22;68889;48.232;10.110;2023-04-03T03:16:35;1.90;82.90
79439;DHT22;68889;48.232;10.110;2023-04-03T03:19:01;2.00;83.00
79439;DHT22;68889;48.232;10.110;2023-04-03T03:21:27;2.10;83.20
79439;DHT22;68889;48.232;10.110;2023-04-03T03:23:52;2.10;85.30
79439;DHT22;68889;48.232;10.110;2023-04-03T03:26:18;2.10;83.50
79439;DHT22;68889;48.232;10.110;2023-04-03T03:28:43;2.10;84.90
79439;DHT22;68889;48.232;10.110;2023-04-03T03:31:09;2.20;84.30
79439;DHT22;68889;48.232;10.110;2023-04-03T03:33:35;2.20;82.50
79439;DHT22;68889;48.232;10.110;2023-04-03T03:36:01;2.20;84.60
79439;DHT22;68889;48.232;10.110;2023-04-03T03:38:27;2.20;81.00
79439;DHT22;68889;48.232;10.110;2023-04-03T03:40:52;2.20;80.40
79439;DHT22;68889;48.232;10.110;2023-04-03T03:43:18;2.20;82.00
79439;DHT22;68889;48.232;10.110;2023-04-03T03:45:44;2.20;82.80
79439;DHT22;68889;48.232;10.110;2023-04-03T03:48:11;2.10;83.00
79439;DHT22;68889;48.232;10.110;2023-04-03T03:50:37;2.10;82.90
79439;DHT22;68889;48.232;10.110;2023-04-03T03:53:02;2.00;83.80
79439;DHT22;68889;48.232;10.110;2023-04-03T03:55:28;2.10;86.10
79439;DHT22;68889;48.232;10.110;2023-04-03T03:57:54;2.00;85.90
79439;DHT22;68889;48.232;10.110;2023-04-03T04:00:19;2.10;86.10
79439;DHT22;68889;48.232;10.110;2023-04-03T04:02:45;2.10;84.10
79439;DHT22;68889;48.232;10.110;2023-04-03T04:05:11;2.10;84.20
79439;DHT22;68889;48.232;10.110;2023-04-03T04:07:36;2.10;84.50
79439;DHT22;68889;48.232;10.110;2023-04-03T04:10:03;2.10;85.10
79439;DHT22;68889;48.232;10.110;2023-04-03T04:12:29;2.10;83.50
79439;DHT22;68889;48.232;10.110;2023-04-03T04:14:55;2.10;84.30
79439;DHT22;68889;48.232;10.110;2023-04-03T04:17:21;2.10;82.80
79439;DHT22;68889;48.232;10.110;2023-04-03T04:19:47;2.10;81.50
79439;DHT22;68889;48.232;10.110;2023-04-03T04:22:12;2.10;79.80
79439;DHT22;68889;48.232;10.110;2023-04-03T04:24:38;2.10;81.20
79439;DHT22;68889;48.232;10.110;2023-04-03T04:27:03;2.10;81.20
79439;DHT22;68889;48.232;10.110;2023-04-03T04:29:29;2.10;82.00
79439;DHT22;68889;48.232;10.110;2023-04-03T04:31:54;2.10;80.10
79439;DHT22;68889;48.232;10.110;2023-04-03T04:34:20;2.10;81.00
79439;DHT22;68889;48.232;10.110;2023-04-03T04:36:46;2.10;79.20
79439;DHT22;68889;48.232;10.110;2023-04-03T04:39:11;2.10;79.90
79439;DHT22;68889;48.232;10.110;2023-04-03T04:41:37;2.10;79.20
79439;DHT22;68889;48.232;10.110;2023-04-03T04:44:02;2.10;79.80
79439;DHT22;68889;48.232;10.110;2023-04-03T04:46:28;2.10;80.40
79439;DHT22;68889;48.232;10.110;2023-04-03T04:48:53;2.10;81.60
79439;DHT22;68889;48.232;10.110;2023-04-03T04:51:19;2.10;81.10
79439;DHT22;68889;48.232;10.110;2023-04-03T04:53:45;2.20;81.60
79439;DHT22;68889;48.232;10.110;2023-04-03T04:56:12;2.20;81.50
79439;DHT22;68889;48.232;10.110;2023-04-03T04:58:37;2.20;79.10
79439;DHT22;68889;48.232;10.110;2023-04-03T05:01:06;2.20;78.40
79439;DHT22;68889;48.232;10.110;2023-04-03T05:03:32;2.10;78.70
79439;DHT22;68889;48.232;10.110;2023-04-03T05:05:58;2.10;80.30
79439;DHT22;68889;48.232;10.110;2023-04-03T05:08:23;2.10;79.20
79439;DHT22;68889;48.232;10.110;2023-04-03T05:10:49;2.10;79.50
79439;DHT22;68889;48.232;10.110;2023-04-03T05:13:15;2.00;79.00
79439;DHT22;68889;48.232;10.110;2023-04-03T05:15:41;1.90;79.20
79439;DHT22;68889;48.232;10.110;2023-04-03T05:18:06;1.90;79.30
79439;DHT22;68889;48.232;10.110;2023-04-03T05:20:33;2.00;80.20
79439;DHT22;68889;48.232;10.110;2023-04-03T05:22:59;1.90;79.10
79439;DHT22;68889;48.232;10.110;2023-04-03T05:25:24;2.00;80.70
79439;DHT22;68889;48.232;10.110;2023-04-03T05:27:50;1.90;80.10
79439;DHT22;68889;48.232;10.110;2023-04-03T05:30:16;2.00;79.90
79439;DHT22;68889;48.232;10.110;2023-04-03T05:32:42;1.90;79.90
79439;DHT22;68889;48.232;10.110;2023-04-03T05:35:08;2.00;79.50
79439;DHT22;68889;48.232;10.110;2023-04-03T05:37:34;2.00;80.40
79439;DHT22;68889;48.232;10.110;2023-04-03T05:40:00;1.90;80.20
79439;DHT22;68889;48.232;10.110;2023-04-03T05:42:25;1.90;79.80
79439;DHT22;68889;48.232;10.110;2023-04-03T05:44:51;2.00;81.50
79439;DHT22;68889;48.232;10.110;2023-04-03T05:47:17;2.10;80.70
79439;DHT22;68889;48.232;10.110;2023-04-03T05:49:43;2.10;79.80
79439;DHT22;68889;48.232;10.110;2023-04-03T05:52:26;2.10;79.00
79439;DHT22;68889;48.232;10.110;2023-04-03T05:54:53;2.10;79.30
79439;DHT22;68889;48.232;10.110;2023-04-03T05:57:18;2.10;80.50
79439;DHT22;68889;48.232;10.110;2023-04-03T05:59:45;2.10;79.90
79439;DHT22;68889;48.232;10.110;2023-04-03T06:02:16;2.10;80.30
79439;DHT22;68889;48.232;10.110;2023-04-03T06:04:42;2.10;81.20
79439;DHT22;68889;48.232;10.110;2023-04-03T06:07:18;2.10;79.60
79439;DHT22;68889;48.232;10.110;2023-04-03T06:09:46;2.20;80.20
79439;DHT22;68889;48.232;10.110;2023-04-03T06:12:12;2.10;79.60
79439;DHT22;68889;48.232;10.110;2023-04-03T06:14:38;2.10;79.60
79439;DHT22;68889;48.232;10.110;2023-04-03T06:17:03;2.10;79.50
79439;DHT22;68889;48.232;10.110;2023-04-03T06:19:29;2.20;80.50
79439;DHT22;68889;48.232;10.110;2023-04-03T06:21:55;2.20;79.50
79439;DHT22;68889;48.232;10.110;2023-04-03T06:24:21;2.10;79.30
79439;DHT22;68889;48.232;10.110;2023-04-03T06:26:49;2.10;80.10
79439;DHT22;68889;48.232;10.110;2023-04-03T06:29:16;2.10;80.50
79439;DHT22;68889;48.232;10.110;2023-04-03T06:31:42;2.20;80.50
79439;DHT22;68889;48.232;10.110;2023-04-03T06:34:07;2.30;80.50
79439;DHT22;68889;48.232;10.110;2023-04-03T06:36:34;2.40;79.80
79439;DHT22;68889;48.232;10.110;2023-04-03T06:39:00;2.40;79.90
79439;DHT22;68889;48.232;10.110;2023-04-03T06:41:25;2.40;78.80
79439;DHT22;68889;48.232;10.110;2023-04-03T06:43:52;2.30;80.00
79439;DHT22;68889;48.232;10.110;2023-04-03T06:46:20;2.30;79.30
79439;DHT22;68889;48.232;10.110;2023-04-03T06:48:46;2.30;81.10
79439;DHT22;68889;48.232;10.110;2023-04-03T06:51:18;2.30;79.20
79439;DHT22;68889;48.232;10.110;2023-04-03T06:53:44;2.40;79.00
79439;DHT22;68889;48.232;10.110;2023-04-03T06:56:11;2.40;80.00
79439;DHT22;68889;48.232;10.110;2023-04-03T06:58:36;2.50;79.70
79439;DHT22;68889;48.232;10.110;2023-04-03T07:01:02;2.50;79.70
79439;DHT22;68889;48.232;10.110;2023-04-03T07:03:28;2.60;80.50
79439;DHT22;68889;48.232;10.110;2023-04-03T07:05:53;2.60;78.50
79439;DHT22;68889;48.232;10.110;2023-04-03T07:08:19;2.50;79.20
79439;DHT22;68889;48.232;10.110;2023-04-03T07:10:45;2.50;80.50
79439;DHT22;68889;48.232;10.110;2023-04-03T07:13:10;2.60;79.00
79439;DHT22;68889;48.232;10.110;2023-04-03T07:15:36;2.60;79.70
79439;DHT22;68889;48.232;10.110;2023-04-03T07:18:02;2.50;78.50
79439;DHT22;68889;48.232;10.110;2023-04-03T07:20:28;2.60;79.30
79439;DHT22;68889;48.232;10.110;2023-04-03T07:22:53;2.70;79.40
79439;DHT22;68889;48.232;10.110;2023-04-03T07:25:19;2.80;78.80
79439;DHT22;68889;48.232;10.110;2023-04-03T07:27:45;2.70;78.10
79439;DHT22;68889;48.232;10.110;2023-04-03T07:30:11;2.80;79.30
79439;DHT22;68889;48.232;10.110;2023-04-03T07:32:36;2.90;77.80
79439;DHT22;68889;48.232;10.110;2023-04-03T07:35:03;2.90;77.80
79439;DHT22;68889;48.232;10.110;2023-04-03T07:37:28;3.00;77.50
79439;DHT22;68889;48.232;10.110;2023-04-03T07:39:54;3.00;78.90
79439;DHT22;68889;48.232;10.110;2023-04-03T07:42:20;3.20;79.90
79439;DHT22;68889;48.232;10.110;2023-04-03T07:44:46;3.30;78.50
79439;DHT22;68889;48.232;10.110;2023-04-03T07:47:12;3.20;77.70
79439;DHT22;68889;48.232;10.110;2023-04-03T07:49:39;3.20;78.20
79439;DHT22;68889;48.232;10.110;2023-04-03T07:52:06;2.90;77.70
79439;DHT22;68889;48.232;10.110;2023-04-03T07:54:34;2.90;78.20
79439;DHT22;68889;48.232;10.110;2023-04-03T07:57:00;3.00;78.70
79439;DHT22;68889;48.232;10.110;2023-04-03T07:59:26;3.00;78.00
79439;DHT22;68889;48.232;10.110;2023-04-03T08:01:52;3.00;78.40
79439;DHT22;68889;48.232;10.110;2023-04-03T08:04:18;3.00;78.70
79439;DHT22;68889;48.232;10.110;2023-04-03T08:06:43;3.20;78.00
79439;DHT22;68889;48.232;10.110;2023-04-03T08:09:09;3.30;78.00
79439;DHT22;68889;48.232;10.110;2023-04-03T08:11:34;3.40;76.30
79439;DHT22;68889;48.232;10.110;2023-04-03T08:14:01;3.40;76.50
79439;DHT22;68889;48.232;10.110;2023-04-03T08:16:28;3.30;77.10
79439;DHT22;68889;48.232;10.110;2023-04-03T08:18:54;3.30;77.60
79439;DHT22;68889;48.232;10.110;2023-04-03T08:21:20;3.30;76.70
79439;DHT22;68889;48.232;10.110;2023-04-03T08:23:48;3.30;78.20
79439;DHT22;68889;48.232;10.110;2023-04-03T08:26:17;3.30;76.90
79439;DHT22;68889;48.232;10.110;2023-04-03T08:28:42;3.30;76.90
79439;DHT22;68889;48.232;10.110;2023-04-03T08:31:11;3.20;76.40
79439;DHT22;68889;48.232;10.110;2023-04-03T08:33:38;3.40;76.90
79439;DHT22;68889;48.232;10.110;2023-04-03T08:36:06;3.50;76.80
79439;DHT22;68889;48.232;10.110;2023-04-03T08:38:32;3.70;76.80
79439;DHT22;68889;48.232;10.110;2023-04-03T08:41:14;3.70;74.80
79439;DHT22;68889;48.232;10.110;2023-04-03T08:46:22;3.90;73.20
79439;DHT22;68889;48.232;10.110;2023-04-03T08:48:50;3.90;74.40
79439;DHT22;68889;48.232;10.110;2023-04-03T08:51:20;4.00;72.80
79439;DHT22;68889;48.232;10.110;2023-04-03T08:53:55;4.20;74.10
79439;DHT22;68889;48.232;10.110;2023-04-03T08:56:22;4.40;72.90
79439;DHT22;68889;48.232;10.110;2023-04-03T08:58:58;4.30;72.40
79439;DHT22;68889;48.232;10.110;2023-04-03T09:01:30;4.40;72.50
79439;DHT22;68889;48.232;10.110;2023-04-03T09:04:00;4.50;73.40
79439;DHT22;68889;48.232;10.110;2023-04-03T09:06:31;4.60;71.70
79439;DHT22;68889;48.232;10.110;2023-04-03T09:09:16;4.50;70.00
79439;DHT22;68889;48.232;10.110;2023-04-03T09:11:55;4.20;69.70
79439;DHT22;68889;48.232;10.110;2023-04-03T09:17:22;4.20;69.20
79439;DHT22;68889;48.232;10.110;2023-04-03T09:20:16;4.30;71.00
79439;DHT22;68889;48.232;10.110;2023-04-03T09:22:45;4.40;70.70
79439;DHT22;68889;48.232;10.110;2023-04-03T09:25:18;4.70;70.40
79439;DHT22;68889;48.232;10.110;2023-04-03T09:27:45;4.90;68.30
79439;DHT22;68889;48.232;10.110;2023-04-03T09:30:16;4.90;69.10
79439;DHT22;68889;48.232;10.110;2023-04-03T09:32:44;5.10;68.30
79439;DHT22;68889;48.232;10.110;2023-04-03T09:35:31;5.30;68.80
79439;DHT22;68889;48.232;10.110;2023-04-03T09:38:19;5.50;67.20
79439;DHT22;68889;48.232;10.110;2023-04-03T09:40:47;5.60;67.70
79439;DHT22;68889;48.232;10.110;2023-04-03T09:43:26;5.60;67.30
79439;DHT22;68889;48.232;10.110;2023-04-03T09:45:53;5.20;67.50
79439;DHT22;68889;48.232;10.110;2023-04-03T09:48:25;5.10;69.10
79439;DHT22;68889;48.232;10.110;2023-04-03T09:55:56;5.20;67.70
79439;DHT22;68889;48.232;10.110;2023-04-03T09:58:31;5.10;67.40
79439;DHT22;68889;48.232;10.110;2023-04-03T10:01:00;5.10;69.20
79439;DHT22;68889;48.232;10.110;2023-04-03T10:03:29;5.30;67.80
79439;DHT22;68889;48.232;10.110;2023-04-03T10:05:56;5.40;68.20
79439;DHT22;68889;48.232;10.110;2023-04-03T10:08:26;5.50;67.30
79439;DHT22;68889;48.232;10.110;2023-04-03T10:11:11;5.40;67.10
79439;DHT22;68889;48.232;10.110;2023-04-03T10:13:49;5.30;67.30
79439;DHT22;68889;48.232;10.110;2023-04-03T10:16:20;4.80;67.80
79439;DHT22;68889;48.232;10.110;2023-04-03T10:24:13;5.20;69.30
79439;DHT22;68889;48.232;10.110;2023-04-03T10:29:46;5.50;66.70
79439;DHT22;68889;48.232;10.110;2023-04-03T10:32:51;5.60;68.00
79439;DHT22;68889;48.232;10.110;2023-04-03T10:43:55;5.60;65.30
79439;DHT22;68889;48.232;10.110;2023-04-03T10:46:35;5.30;66.50
79439;DHT22;68889;48.232;10.110;2023-04-03T10:49:32;5.30;67.30
79439;DHT22;68889;48.232;10.110;2023-04-03T10:57:40;5.00;69.50
79439;DHT22;68889;48.232;10.110;2023-04-03T11:00:14;5.10;67.40
79439;DHT22;68889;48.232;10.110;2023-04-03T11:02:50;5.00;66.80
79439;DHT22;68889;48.232;10.110;2023-04-03T11:08:13;4.50;68.60
79439;DHT22;68889;48.232;10.110;2023-04-03T11:10:43;4.30;69.80
79439;DHT22;68889;48.232;10.110;2023-04-03T11:13:45;4.30;69.60
79439;DHT22;68889;48.232;10.110;2023-04-03T11:16:08;4.30;67.90
79439;DHT22;68889;48.232;10.110;2023-04-03T11:18:47;4.30;68.80
79439;DHT22;68889;48.232;10.110;2023-04-03T11:21:20;4.30;69.10
79439;DHT22;68889;48.232;10.110;2023-04-03T11:23:47;4.40;69.50
79439;DHT22;68889;48.232;10.110;2023-04-03T11:26:19;4.40;68.70
79439;DHT22;68889;48.232;10.110;2023-04-03T11:28:46;4.60;68.70
79439;DHT22;68889;48.232;10.110;2023-04-03T11:38:46;4.50;67.00
79439;DHT22;68889;48.232;10.110;2023-04-03T11:41:29;4.60;67.60
79439;DHT22;68889;48.232;10.110;2023-04-03T11:46:22;4.90;66.90
79439;DHT22;68889;48.232;10.110;2023-04-03T11:48:49;5.20;68.60
79439;DHT22;68889;48.232;10.110;2023-04-03T11:53:46;5.40;65.30
79439;DHT22;68889;48.232;10.110;2023-04-03T11:56:28;5.30;65.10
79439;DHT22;68889;48.232;10.110;2023-04-03T12:01:45;5.20;65.00
79439;DHT22;68889;48.232;10.110;2023-04-03T12:04:12;5.10;66.50
79439;DHT22;68889;48.232;10.110;2023-04-03T12:15:18;5.20;65.10
79439;DHT22;68889;48.232;10.110;2023-04-03T12:17:44;5.30;65.40
79439;DHT22;68889;48.232;10.110;2023-04-03T12:23:35;5.00;66.40
79439;DHT22;68889;48.232;10.110;2023-04-03T12:28:43;5.20;67.70
79439;DHT22;68889;48.232;10.110;2023-04-03T12:31:10;4.90;67.30
79439;DHT22;68889;48.232;10.110;2023-04-03T12:39:48;4.40;69.60
79439;DHT22;68889;48.232;10.110;2023-04-03T12:42:24;4.50;70.40
79439;DHT22;68889;48.232;10.110;2023-04-03T12:45:08;4.70;69.50
79439;DHT22;68889;48.232;10.110;2023-04-03T12:47:36;4.70;67.40
79439;DHT22;68889;48.232;10.110;2023-04-03T12:50:13;4.70;67.50
79439;DHT22;68889;48.232;10.110;2023-04-03T12:52:44;4.80;69.50
79439;DHT22;68889;48.232;10.110;2023-04-03T12:55:19;4.80;67.20
79439;DHT22;68889;48.232;10.110;2023-04-03T12:57:45;4.90;67.70
79439;DHT22;68889;48.232;10.110;2023-04-03T13:00:34;4.70;67.20
79439;DHT22;68889;48.232;10.110;2023-04-03T13:03:02;4.60;67.10
79439;DHT22;68889;48.232;10.110;2023-04-03T13:05:28;4.70;66.90
79439;DHT22;68889;48.232;10.110;2023-04-03T13:08:08;4.70;67.10
79439;DHT22;68889;48.232;10.110;2023-04-03T13:11:05;4.50;68.20
79439;DHT22;68889;48.232;10.110;2023-04-03T13:13:29;4.40;69.20
79439;DHT22;68889;48.232;10.110;2023-04-03T13:15:56;4.20;69.80
79439;DHT22;68889;48.232;10.110;2023-04-03T13:18:35;4.10;69.40
79439;DHT22;68889;48.232;10.110;2023-04-03T13:21:38;4.30;69.90
79439;DHT22;68889;48.232;10.110;2023-04-03T13:24:04;4.60;69.40
79439;DHT22;68889;48.232;10.110;2023-04-03T13:26:31;4.80;66.50
79439;DHT22;68889;48.232;10.110;2023-04-03T13:29:06;5.00;68.30
79439;DHT22;68889;48.232;10.110;2023-04-03T13:31:35;5.10;66.90
79439;DHT22;68889;48.232;10.110;2023-04-03T13:36:37;5.30;65.10
79439;DHT22;68889;48.232;10.110;2023-04-03T13:41:40;5.50;65.10
79439;DHT22;68889;48.232;10.110;2023-04-03T13:49:36;5.70;63.30
79439;DHT22;68889;48.232;10.110;2023-04-03T13:52:24;5.60;63.00
79439;DHT22;68889;48.232;10.110;2023-04-03T13:54:54;5.90;61.60
79439;DHT22;68889;48.232;10.110;2023-04-03T13:57:20;5.90;61.20
79439;DHT22;68889;48.232;10.110;2023-04-03T13:59:46;5.90;60.40
79439;DHT22;68889;48.232;10.110;2023-04-03T14:02:38;5.80;60.40
79439;DHT22;68889;48.232;10.110;2023-04-03T14:05:04;5.80;61.00
79439;DHT22;68889;48.232;10.110;2023-04-03T14:07:34;6.00;61.80
79439;DHT22;68889;48.232;10.110;2023-04-03T14:09:59;6.10;62.50
79439;DHT22;68889;48.232;10.110;2023-04-03T14:12:35;6.30;61.60
79439;DHT22;68889;48.232;10.110;2023-04-03T14:15:05;6.50;61.60
79439;DHT22;68889;48.232;10.110;2023-04-03T14:17:36;6.60;59.80
79439;DHT22;68889;48.232;10.110;2023-04-03T14:20:03;6.40;60.00
79439;DHT22;68889;48.232;10.110;2023-04-03T14:22:31;6.40;61.40
79439;DHT22;68889;48.232;10.110;2023-04-03T14:24:58;6.50;60.90
79439;DHT22;68889;48.232;10.110;2023-04-03T14:27:35;6.40;60.70
79439;DHT22;68889;48.232;10.110;2023-04-03T14:30:08;6.60;61.10
79439;DHT22;68889;48.232;10.110;2023-04-03T14:32:34;6.30;60.80
79439;DHT22;68889;48.232;10.110;2023-04-03T14:35:00;6.40;63.40
79439;DHT22;68889;48.232;10.110;2023-04-03T14:37:28;6.00;59.70
79439;DHT22;68889;48.232;10.110;2023-04-03T14:39:56;5.80;60.80
79439;DHT22;68889;48.232;10.110;2023-04-03T14:42:28;6.10;62.50
79439;DHT22;68889;48.232;10.110;2023-04-03T14:44:55;6.00;60.30
79439;DHT22;68889;48.232;10.110;2023-04-03T14:47:24;6.10;61.00
79439;DHT22;68889;48.232;10.110;2023-04-03T14:49:52;6.30;60.80
79439;DHT22;68889;48.232;10.110;2023-04-03T14:52:25;6.20;59.50
79439;DHT22;68889;48.232;10.110;2023-04-03T14:54:52;6.00;58.90
79439;DHT22;68889;48.232;10.110;2023-04-03T14:57:18;6.20;60.50
79439;DHT22;68889;48.232;10.110;2023-04-03T14:59:45;6.30;58.90
79439;DHT22;68889;48.232;10.110;2023-04-03T15:02:25;6.40;59.90
79439;DHT22;68889;48.232;10.110;2023-04-03T15:04:51;6.60;61.30
79439;DHT22;68889;48.232;10.110;2023-04-03T15:07:17;6.40;59.00
79439;DHT22;68889;48.232;10.110;2023-04-03T15:09:44;6.60;61.70
79439;DHT22;68889;48.232;10.110;2023-04-03T15:12:10;6.40;59.40
79439;DHT22;68889;48.232;10.110;2023-04-03T15:14:35;6.40;58.40
79439;DHT22;68889;48.232;10.110;2023-04-03T15:17:01;6.10;59.20
79439;DHT22;68889;48.232;10.110;2023-04-03T15:19:27;6.00;58.60
79439;DHT22;68889;48.232;10.110;2023-04-03T15:21:53;6.00;58.20
79439;DHT22;68889;48.232;10.110;2023-04-03T15:24:18;5.80;59.00
79439;DHT22;68889;48.232;10.110;2023-04-03T15:26:45;5.70;59.70
79439;DHT22;68889;48.232;10.110;2023-04-03T15:29:12;5.70;59.50
79439;DHT22;68889;48.232;10.110;2023-04-03T15:31:39;5.80;60.70
79439;DHT22;68889;48.232;10.110;2023-04-03T15:34:08;5.90;61.60
79439;DHT22;68889;48.232;10.110;2023-04-03T15:36:33;6.00;60.00
79439;DHT22;68889;48.232;10.110;2023-04-03T15:39:02;6.00;59.40
79439;DHT22;68889;48.232;10.110;2023-04-03T15:41:28;6.00;58.40
79439;DHT22;68889;48.232;10.110;2023-04-03T15:43:54;6.00;56.80
79439;DHT22;68889;48.232;10.110;2023-04-03T15:46:20;6.00;57.10
79439;DHT22;68889;48.232;10.110;2023-04-03T15:48:46;5.80;56.90
79439;DHT22;68889;48.232;10.110;2023-04-03T15:51:11;5.70;56.30
79439;DHT22;68889;48.232;10.110;2023-04-03T15:53:37;5.70;57.70
79439;DHT22;68889;48.232;10.110;2023-04-03T15:56:03;5.50;56.20
79439;DHT22;68889;48.232;10.110;2023-04-03T15:58:30;5.40;58.10
79439;DHT22;68889;48.232;10.110;2023-04-03T16:00:57;5.50;58.40
79439;DHT22;68889;48.232;10.110;2023-04-03T16:03:22;5.50;56.90
79439;DHT22;68889;48.232;10.110;2023-04-03T16:05:49;5.50;56.80
79439;DHT22;68889;48.232;10.110;2023-04-03T16:08:16;5.40;57.00
79439;DHT22;68889;48.232;10.110;2023-04-03T16:10:43;5.50;58.10
79439;DHT22;68889;48.232;10.110;2023-04-03T16:13:11;5.50;59.40
79439;DHT22;68889;48.232;10.110;2023-04-03T16:15:36;5.50;57.50
79439;DHT22;68889;48.232;10.110;2023-04-03T16:18:03;5.40;56.70
79439;DHT22;68889;48.232;10.110;2023-04-03T16:20:29;5.40;57.00
79439;DHT22;68889;48.232;10.110;2023-04-03T16:22:57;5.40;56.50
79439;DHT22;68889;48.232;10.110;2023-04-03T16:25:23;5.60;57.00
79439;DHT22;68889;48.232;10.110;2023-04-03T16:27:49;5.50;55.90
79439;DHT22;68889;48.232;10.110;2023-04-03T16:30:15;5.40;56.10
79439;DHT22;68889;48.232;10.110;2023-04-03T16:32:40;5.30;57.10
79439;DHT22;68889;48.232;10.110;2023-04-03T16:35:07;5.30;57.20
79439;DHT22;68889;48.232;10.110;2023-04-03T16:37:35;5.20;55.80
79439;DHT22;68889;48.232;10.110;2023-04-03T16:40:01;5.10;57.60
79439;DHT22;68889;48.232;10.110;2023-04-03T16:42:28;5.10;56.70
79439;DHT22;68889;48.232;10.110;2023-04-03T16:44:53;4.90;55.80
79439;DHT22;68889;48.232;10.110;2023-04-03T16:47:19;4.70;56.50
79439;DHT22;68889;48.232;10.110;2023-04-03T16:49:45;4.70;57.50
79439;DHT22;68889;48.232;10.110;2023-04-03T16:52:11;4.70;56.40
79439;DHT22;68889;48.232;10.110;2023-04-03T16:54:37;4.60;56.40
79439;DHT22;68889;48.232;10.110;2023-04-03T16:57:03;4.60;57.30
79439;DHT22;68889;48.232;10.110;2023-04-03T16:59:28;4.50;57.00
79439;DHT22;68889;48.232;10.110;2023-04-03T17:01:54;4.50;59.50
79439;DHT22;68889;48.232;10.110;2023-04-03T17:04:20;4.60;59.20